createdAt,value
2022-11-24T00:03:24.102Z,100.10
2022-11-24T00:08:24.222Z,100.10
2022-11-24T00:13:23.894Z,224.00
2022-11-24T00:18:24.197Z,224.00
2022-11-24T00:23:24.149Z,182.40
2022-11-24T00:28:24.170Z,182.40
2022-11-24T00:33:23.909Z,642.50
2022-11-24T00:38:24.007Z,642.50
2022-11-24T00:43:23.914Z,710.80
2022-11-24T00:48:24.109Z,710.80
2022-11-24T00:53:24.235Z,699.30
2022-11-24T00:58:23.905Z,699.30
2022-11-24T01:08:24.038Z,690.60
2022-11-24T01:13:24.175Z,710.80
2022-11-24T01:18:24.027Z,710.80
2022-11-24T01:23:23.943Z,649.60
2022-11-24T01:28:23.987Z,649.60
2022-11-24T01:38:24.252Z,670.50
2022-11-24T01:43:24.252Z,678.80
2022-11-24T01:48:27.284Z,678.80
2022-11-24T01:53:24.066Z,687.30
2022-11-24T02:03:24.037Z,692.90
2022-11-24T02:08:23.933Z,692.90
2022-11-24T02:13:23.958Z,740.40
2022-11-24T02:23:23.942Z,734.20
2022-11-24T02:28:23.934Z,734.20
2022-11-24T02:33:24.257Z,705.90
2022-11-24T02:43:24.233Z,727.10
2022-11-24T02:48:23.995Z,727.10
2022-11-24T02:53:24.190Z,722.90
2022-11-24T02:58:24.026Z,722.90
2022-11-24T03:03:23.967Z,727.90
2022-11-24T03:08:24.298Z,727.90
2022-11-24T03:13:24.128Z,711.90
2022-11-24T03:18:24.269Z,711.90
2022-11-24T03:23:24.001Z,722.40
2022-11-24T03:28:24.250Z,722.40
2022-11-24T03:33:24.072Z,717.90
2022-11-24T03:38:24.202Z,717.90
2022-11-24T03:43:23.957Z,716.40
2022-11-24T03:48:24.190Z,716.40
2022-11-24T03:53:23.982Z,702.60
2022-11-24T03:58:24.164Z,702.60
2022-11-24T04:03:23.985Z,725.30
2022-11-24T04:08:24.117Z,725.30
2022-11-24T04:13:24.280Z,678.00
2022-11-24T04:18:24.058Z,678.00
2022-11-24T04:23:23.993Z,672.10
2022-11-24T04:28:24.069Z,672.10
2022-11-24T04:33:23.968Z,677.80
2022-11-24T04:39:23.991Z,677.80
2022-11-24T04:43:24.035Z,668.70
2022-11-24T04:48:24.326Z,668.70
2022-11-24T04:53:24.156Z,699.30
2022-11-24T04:58:24.280Z,699.30
2022-11-24T05:03:23.988Z,680.60
2022-11-24T05:08:23.995Z,680.60
2022-11-24T05:13:23.988Z,653.60
2022-11-24T05:18:24.021Z,653.60
2022-11-24T05:23:24.030Z,682.90
2022-11-24T05:28:24.021Z,682.90
2022-11-24T05:33:24.332Z,694.00
2022-11-24T05:38:23.990Z,694.00
2022-11-24T05:43:24.261Z,688.20
2022-11-24T05:48:24.063Z,688.20
2022-11-24T05:53:24.267Z,681.50
2022-11-24T06:03:24.313Z,676.60
2022-11-24T06:08:28.168Z,676.60
2022-11-24T06:13:24.218Z,692.60
2022-11-24T06:18:24.040Z,692.60
2022-11-24T06:23:24.142Z,671.00
2022-11-24T06:28:24.007Z,671.00
2022-11-24T06:33:24.160Z,674.00
2022-11-24T06:38:24.471Z,674.00
2022-11-24T06:43:24.080Z,687.30
2022-11-24T06:48:24.124Z,687.30
2022-11-24T06:53:24.057Z,679.90
2022-11-24T06:58:24.208Z,679.90
2022-11-24T07:03:24.689Z,703.50
2022-11-24T07:08:24.142Z,703.50
2022-11-24T07:13:24.047Z,656.60
2022-11-24T07:18:24.143Z,656.60
2022-11-24T07:23:24.301Z,713.50
2022-11-24T07:28:24.147Z,713.50
2022-11-24T07:33:24.036Z,710.60
2022-11-24T07:38:24.094Z,710.60
2022-11-24T07:43:24.060Z,704.70
2022-11-24T07:53:24.086Z,714.30
2022-11-24T07:58:27.595Z,714.30
2022-11-24T08:03:24.112Z,706.20
2022-11-24T08:08:24.318Z,706.20
2022-11-24T08:13:24.061Z,702.80
2022-11-24T08:18:24.275Z,702.80
2022-11-24T08:23:24.129Z,690.30
2022-11-24T08:28:24.085Z,690.30
2022-11-24T08:33:24.098Z,681.50
2022-11-24T08:38:24.488Z,681.50
2022-11-24T08:43:24.338Z,683.10
2022-11-24T08:48:24.184Z,683.10
2022-11-24T08:53:24.361Z,701.80
2022-11-24T08:58:24.180Z,701.80
2022-11-24T09:03:24.309Z,698.10
2022-11-24T09:08:24.112Z,698.10
2022-11-24T09:13:24.290Z,674.40
2022-11-24T09:18:28.883Z,674.40
2022-11-24T09:23:24.264Z,681.00
2022-11-24T09:28:24.105Z,681.00
2022-11-24T09:33:24.245Z,700.10
2022-11-24T09:38:24.112Z,700.10
2022-11-24T09:43:24.208Z,703.70
2022-11-24T09:48:24.103Z,703.70
2022-11-24T09:53:24.176Z,713.20
2022-11-24T09:58:24.135Z,713.20
2022-11-24T10:03:24.437Z,710.10
2022-11-24T10:08:24.247Z,710.10
2022-11-24T10:13:24.392Z,691.40
2022-11-24T10:18:24.130Z,691.40
2022-11-24T10:23:24.377Z,689.30
2022-11-24T10:28:24.197Z,689.30
2022-11-24T10:33:30.142Z,687.00
2022-11-24T10:43:24.144Z,694.50
2022-11-24T10:53:24.260Z,687.70
2022-11-24T10:58:24.254Z,687.70
2022-11-24T11:03:24.175Z,677.10
2022-11-24T11:08:24.391Z,677.10
2022-11-24T11:13:24.247Z,690.60
2022-11-24T11:18:24.359Z,690.60
2022-11-24T11:23:24.165Z,692.80
2022-11-24T11:28:24.337Z,692.80
2022-11-24T11:38:24.325Z,696.20
2022-11-24T11:43:24.181Z,693.70
2022-11-24T11:48:24.260Z,693.70
2022-11-24T11:53:24.192Z,695.30
2022-11-24T11:58:24.280Z,695.30
2022-11-24T12:03:24.344Z,699.70
2022-11-24T12:08:24.336Z,699.70
2022-11-24T12:13:24.384Z,696.10
2022-11-24T12:18:48.986Z,696.10
2022-11-24T12:23:24.152Z,681.20
2022-11-24T12:28:24.731Z,681.20
2022-11-24T12:33:24.321Z,696.80
2022-11-24T12:38:24.534Z,696.80
2022-11-24T12:43:24.180Z,708.00
2022-11-24T12:48:24.238Z,708.00
2022-11-24T12:53:24.256Z,699.80
2022-11-24T12:58:24.368Z,699.80
2022-11-24T13:03:24.167Z,699.00
2022-11-24T13:08:24.207Z,699.00
2022-11-24T13:13:24.206Z,704.30
2022-11-24T13:18:24.262Z,704.30
2022-11-24T13:23:24.388Z,693.40
2022-11-24T13:28:53.931Z,693.40
2022-11-24T13:33:27.074Z,692.20
2022-11-24T13:38:24.249Z,692.20
2022-11-24T13:43:24.531Z,694.20
2022-11-24T13:48:24.261Z,694.20
2022-11-24T13:53:24.358Z,697.30
2022-11-24T13:58:24.513Z,697.30
2022-11-24T14:03:24.330Z,695.80
2022-11-24T14:08:24.470Z,695.80
2022-11-24T14:13:24.232Z,699.00
2022-11-24T14:18:24.223Z,699.00
2022-11-24T14:23:24.306Z,676.30
2022-11-24T14:28:24.497Z,676.30
2022-11-24T14:33:24.223Z,686.00
2022-11-24T14:38:24.238Z,686.00
2022-11-24T14:43:24.558Z,693.70
2022-11-24T14:48:24.375Z,693.70
2022-11-24T14:58:24.249Z,682.90
2022-11-24T15:03:24.510Z,686.40
2022-11-24T15:08:24.275Z,686.40
2022-11-24T15:13:24.457Z,687.30
2022-11-24T15:18:24.230Z,687.30
2022-11-24T15:23:24.231Z,689.30
2022-11-24T15:28:24.272Z,689.30
2022-11-24T15:33:24.234Z,636.90
2022-11-24T15:38:24.639Z,636.90
2022-11-24T15:43:24.346Z,676.00
2022-11-24T15:48:24.613Z,676.00
2022-11-24T15:53:24.316Z,665.60
2022-11-24T15:58:24.484Z,665.60
2022-11-24T16:03:46.171Z,668.40
2022-11-24T16:08:24.445Z,668.40
2022-11-24T16:13:24.623Z,665.40
2022-11-24T16:18:24.621Z,665.40
2022-11-24T16:23:24.285Z,658.10
2022-11-24T16:28:24.387Z,658.10
2022-11-24T16:33:24.506Z,668.50
2022-11-24T16:38:24.334Z,668.50
2022-11-24T16:43:24.352Z,677.40
2022-11-24T16:48:24.298Z,677.40
2022-11-24T16:53:24.300Z,671.20
2022-11-24T16:58:24.599Z,671.20
2022-11-24T17:03:24.270Z,678.30
2022-11-24T17:08:25.928Z,678.30
2022-11-24T17:13:24.428Z,669.60
2022-11-24T17:18:25.533Z,669.60
2022-11-24T17:23:24.349Z,682.70
2022-11-24T17:28:24.643Z,682.70
2022-11-24T17:33:24.462Z,677.50
2022-11-24T17:38:24.461Z,677.50
2022-11-24T17:43:24.292Z,655.80
2022-11-24T17:48:24.458Z,655.80
2022-11-24T17:53:24.503Z,663.00
2022-11-24T17:58:24.400Z,663.00
2022-11-24T18:03:24.497Z,677.70
2022-11-24T18:08:24.477Z,677.70
2022-11-24T18:13:54.445Z,679.00
2022-11-24T18:18:24.580Z,679.00
2022-11-24T18:23:24.658Z,667.40
2022-11-24T18:28:24.628Z,667.40
2022-11-24T18:33:24.757Z,669.10
2022-11-24T18:38:24.878Z,669.10
2022-11-24T18:43:24.654Z,671.40
2022-11-24T18:48:24.562Z,671.40
2022-11-24T18:53:24.543Z,647.30
2022-11-24T18:58:24.753Z,647.30
2022-11-24T19:03:24.649Z,644.30
2022-11-24T19:08:24.507Z,644.30
2022-11-24T19:13:24.957Z,646.20
2022-11-24T19:18:24.750Z,646.20
2022-11-24T19:23:24.881Z,652.40
2022-11-24T19:28:24.465Z,652.40
2022-11-24T19:33:24.913Z,654.70
2022-11-24T19:38:29.686Z,654.70
2022-11-24T19:43:25.156Z,643.90
2022-11-24T19:48:24.697Z,643.90
2022-11-24T19:53:24.803Z,650.30
2022-11-24T19:58:24.702Z,650.30
2022-11-24T20:03:25.447Z,652.90
2022-11-24T20:08:24.866Z,652.90
2022-11-24T20:13:24.632Z,643.80
2022-11-24T20:18:24.624Z,643.80
2022-11-24T20:23:24.739Z,643.80
2022-11-24T20:28:24.685Z,643.80
2022-11-24T20:33:24.706Z,649.50
2022-11-24T20:38:24.785Z,649.50
2022-11-24T20:43:24.369Z,643.20
2022-11-24T20:48:24.771Z,643.20
2022-11-24T20:53:24.603Z,651.20
2022-11-24T20:58:24.670Z,651.20
2022-11-24T21:03:24.579Z,641.60
2022-11-24T21:08:24.708Z,641.60
2022-11-24T21:13:24.685Z,641.10
2022-11-24T21:18:24.389Z,641.10
2022-11-24T21:23:24.673Z,657.30
2022-11-24T21:28:24.740Z,657.30
2022-11-24T21:33:24.517Z,655.50
2022-11-24T21:38:24.382Z,655.50
2022-11-24T21:43:24.532Z,650.80
2022-11-24T21:48:24.669Z,650.80
2022-11-24T21:53:24.478Z,648.60
2022-11-24T21:58:24.635Z,648.60
2022-11-24T22:03:24.417Z,652.40
2022-11-24T22:08:24.600Z,652.40
2022-11-24T22:13:24.750Z,657.10
2022-11-24T22:18:24.535Z,657.10
2022-11-24T22:23:24.726Z,653.30
2022-11-24T22:28:24.411Z,653.30
2022-11-24T22:33:24.786Z,642.60
2022-11-24T22:38:24.421Z,642.60
2022-11-24T22:43:24.428Z,653.80
2022-11-24T22:48:24.442Z,653.80
2022-11-24T22:53:24.422Z,654.40
2022-11-24T22:58:24.463Z,654.40
2022-11-24T23:03:24.499Z,642.90
2022-11-24T23:08:24.730Z,642.90
2022-11-24T23:13:24.405Z,656.30
2022-11-24T23:18:24.708Z,656.30
2022-11-24T23:23:24.501Z,645.00
2022-11-24T23:33:24.766Z,648.80
2022-11-24T23:38:24.650Z,648.80
2022-11-24T23:43:24.780Z,649.40
2022-11-24T23:48:24.572Z,649.40
2022-11-24T23:53:24.451Z,638.50
2022-11-24T23:58:24.565Z,638.50
